Airfield :
LOGIN :

Register | Disclaimer

   EN    FR    IT 

 










Legend :    VFR   Marginal VFR   IFR   Intensive IFR   Very Intensive IFR
Visi :
Ceiling :
>= 8 km
>= 3000ft
5 to 8 km
1000 to 3000 ft
1500m to 5 km
500 to 1000 ft
800 to 1500m
200 to 500 ft
< 800m
< 200 ft
Symbols :   Thunderstorms  Fog  Heavy snow  Heavy precipitations  Wind > 20 kt
SIGMETs :     Misc.  Thunderstorms  Icing  Turbulence  Mountain Waves  Volcanic Ashes






- Airport Elevation : 348 ft
- IATA code : LDV


LFRJ - Landivisiau

CURRENT METAR :
  • 071430Z AUTO 26013KT 9999 SCT026 SCT039 BKN048 17/12 Q1022 NOSIG

EXPIRED METARs :
  • 071400Z AUTO 23012KT 9999 FEW020 SCT048 17/12 Q1022 NOSIG
  • 071330Z AUTO 24012KT 9999 BKN019 BKN025 BKN031 16/12 Q1023 NOSIG
  • 071300Z AUTO 23014KT 9999 BKN021 BKN031 BKN038 17/13 Q1023 TEMPO BKN012
  • 071230Z AUTO 23012KT 9999 SCT015 BKN021 BKN031 17/12 Q1023 TEMPO BKN012
  • 071200Z AUTO 22012KT 9999 BKN014 BKN024 BKN034 17/13 Q1024 NOSIG

TAF TAF LFRJ
Valid from the 07 at 15:00 until the 08 at 00:00 UTC


071400Z 0715/0724 24010KT 9999 SCT025
TEMPO 0719/0722 3000 RADZ BKN005



MET'MAP, your aeronautical weather chart ! - Copyright ORBIFLY December 2007 - Disclaimer

ORBIFLY MET'MAP TEAM :

Programming & Development : Alexandra Zaïnal
Original concept : Baudouin d'Aumeries
Technical & hardware support : Manuel Goepfert
Assistance : Marc-Olivier Méhu




SOURCES & CREDITS :

   NOAA